createdAt,value
2023-02-09T00:01:21.705Z,66.71
2023-02-09T00:03:51.162Z,66.72
2023-02-09T00:06:21.446Z,67.50
2023-02-09T00:08:50.642Z,67.40
2023-02-09T00:11:41.858Z,67.05
2023-02-09T00:14:10.395Z,66.77
2023-02-09T00:16:41.441Z,66.12
2023-02-09T00:19:10.696Z,67.01
2023-02-09T00:21:39.797Z,66.62
2023-02-09T00:24:10.913Z,66.48
2023-02-09T00:26:40.182Z,66.30
2023-02-09T00:29:12.205Z,66.36
2023-02-09T00:31:42.599Z,66.47
2023-02-09T00:34:12.317Z,66.84
2023-02-09T00:36:41.388Z,66.97
2023-02-09T00:39:10.674Z,66.43
2023-02-09T00:41:57.094Z,66.74
2023-02-09T00:44:25.957Z,66.29
2023-02-09T00:46:57.015Z,66.40
2023-02-09T00:49:26.004Z,67.12
2023-02-09T00:51:55.656Z,67.21
2023-02-09T00:54:26.664Z,67.59
2023-02-09T00:57:05.606Z,67.39
2023-02-09T01:00:06.158Z,68.02
2023-02-09T01:02:36.494Z,68.09
2023-02-09T01:05:05.788Z,68.46
2023-02-09T01:07:35.189Z,68.11
2023-02-09T01:10:04.597Z,67.52
2023-02-09T01:12:33.585Z,67.41
2023-02-09T01:15:03.087Z,67.55
2023-02-09T01:17:32.353Z,68.04
2023-02-09T01:20:02.875Z,68.27
2023-02-09T01:22:35.408Z,68.08
2023-02-09T01:25:04.796Z,68.42
2023-02-09T01:27:39.124Z,67.62
2023-02-09T01:30:08.903Z,67.90
2023-02-09T01:32:37.966Z,68.19
2023-02-09T01:35:08.744Z,68.02
2023-02-09T01:37:39.381Z,67.94
2023-02-09T01:40:13.204Z,67.73
2023-02-09T01:42:42.510Z,67.59
2023-02-09T01:45:22.770Z,67.70
2023-02-09T01:47:54.238Z,67.77
2023-02-09T01:50:25.000Z,67.57
2023-02-09T01:52:54.419Z,67.90
2023-02-09T01:55:27.084Z,67.51
2023-02-09T01:57:58.378Z,67.72
2023-02-09T02:00:27.380Z,67.81
2023-02-09T02:02:59.364Z,67.87
2023-02-09T02:05:33.857Z,68.37
2023-02-09T02:08:06.194Z,67.91
2023-02-09T02:10:35.418Z,68.76
2023-02-09T02:13:04.824Z,68.14
2023-02-09T02:15:41.818Z,68.30
2023-02-09T02:18:21.956Z,68.38
2023-02-09T02:21:17.501Z,68.08
2023-02-09T02:23:51.095Z,68.26
2023-02-09T02:26:49.372Z,67.51
2023-02-09T02:29:30.416Z,67.74
2023-02-09T02:32:12.016Z,68.58
2023-02-09T02:34:48.304Z,68.99
2023-02-09T02:37:28.156Z,68.96
2023-02-09T02:40:04.017Z,69.28
2023-02-09T02:42:53.171Z,69.37
2023-02-09T02:45:32.702Z,69.82
2023-02-09T02:48:10.618Z,70.42
2023-02-09T02:50:43.638Z,69.87
2023-02-09T02:53:14.200Z,69.85
2023-02-09T02:55:44.345Z,69.88
2023-02-09T02:58:14.382Z,69.69
2023-02-09T03:00:46.009Z,69.19
2023-02-09T03:03:18.490Z,69.53
2023-02-09T03:05:48.845Z,69.41
2023-02-09T03:08:21.430Z,69.12
2023-02-09T03:10:50.312Z,69.40
2023-02-09T03:13:34.839Z,69.49
2023-02-09T03:16:14.317Z,69.65
2023-02-09T03:18:51.394Z,69.56
2023-02-09T03:21:25.817Z,69.66
2023-02-09T03:23:58.132Z,69.62
2023-02-09T03:26:40.494Z,69.72
2023-02-09T03:29:10.509Z,69.76
2023-02-09T03:31:40.079Z,69.42
2023-02-09T03:34:12.574Z,70.33
2023-02-09T03:36:43.431Z,70.26
2023-02-09T03:39:12.537Z,70.05
2023-02-09T03:41:41.318Z,69.69
2023-02-09T03:44:28.025Z,69.62
2023-02-09T03:47:01.017Z,69.90
2023-02-09T03:49:33.711Z,70.85
2023-02-09T03:52:13.854Z,71.54
2023-02-09T03:54:42.727Z,71.09
2023-02-09T03:57:11.944Z,71.73
2023-02-09T03:59:40.660Z,71.51
2023-02-09T04:02:14.530Z,71.28
2023-02-09T04:04:47.626Z,71.20
2023-02-09T04:07:16.821Z,71.00
2023-02-09T04:09:46.023Z,71.39
2023-02-09T04:12:15.333Z,71.60
2023-02-09T04:14:44.553Z,71.79
2023-02-09T04:17:13.639Z,71.65
2023-02-09T04:19:42.738Z,71.71
2023-02-09T04:22:13.133Z,71.53
2023-02-09T04:24:46.045Z,71.63
2023-02-09T04:27:14.917Z,71.87
2023-02-09T04:29:44.637Z,72.07
2023-02-09T04:32:17.371Z,72.09
2023-02-09T04:34:46.493Z,72.01
2023-02-09T04:37:16.895Z,72.27
2023-02-09T04:39:46.239Z,71.98
2023-02-09T04:42:14.928Z,72.44
2023-02-09T04:44:43.907Z,72.65
2023-02-09T04:47:12.935Z,72.21
2023-02-09T04:49:42.778Z,72.88
2023-02-09T04:52:11.577Z,72.71
2023-02-09T04:54:42.107Z,72.56
2023-02-09T04:57:28.448Z,72.82
2023-02-09T04:59:57.658Z,73.03
2023-02-09T05:02:26.623Z,72.50
2023-02-09T05:04:58.524Z,71.49
2023-02-09T05:07:27.782Z,71.99
2023-02-09T05:09:58.223Z,72.73
2023-02-09T05:12:27.214Z,74.94
2023-02-09T05:14:59.274Z,75.98
2023-02-09T05:17:28.178Z,75.77
2023-02-09T05:19:57.057Z,74.79
2023-02-09T05:22:25.930Z,75.39
2023-02-09T05:24:55.385Z,75.71
2023-02-09T05:27:25.687Z,75.39
2023-02-09T05:29:54.973Z,75.12
2023-02-09T05:32:26.427Z,74.66
2023-02-09T05:34:55.756Z,74.64
2023-02-09T05:37:24.949Z,74.33
2023-02-09T05:39:54.321Z,74.00
2023-02-09T05:42:23.356Z,73.85
2023-02-09T05:44:53.839Z,73.86
2023-02-09T05:47:24.884Z,74.80
2023-02-09T05:49:53.817Z,74.92
2023-02-09T05:52:23.223Z,74.86
2023-02-09T05:54:52.491Z,74.72
2023-02-09T05:57:21.822Z,74.09
2023-02-09T05:59:50.705Z,73.35
2023-02-09T06:02:21.164Z,73.60
2023-02-09T06:04:50.103Z,73.82
2023-02-09T06:07:19.080Z,74.25
2023-02-09T06:09:50.308Z,75.40
2023-02-09T06:12:19.623Z,75.15
2023-02-09T06:14:48.455Z,76.58
2023-02-09T06:17:17.435Z,77.15
2023-02-09T06:19:47.674Z,76.73
2023-02-09T06:22:16.670Z,76.48
2023-02-09T06:24:45.682Z,76.95
2023-02-09T06:27:18.927Z,76.77
2023-02-09T06:29:50.950Z,77.08
2023-02-09T06:32:20.229Z,77.00
2023-02-09T06:34:54.269Z,77.71
2023-02-09T06:37:23.026Z,77.63
2023-02-09T06:39:52.427Z,76.80
2023-02-09T06:42:21.514Z,76.59
2023-02-09T06:44:50.527Z,76.09
2023-02-09T06:47:19.616Z,75.34
2023-02-09T06:49:51.480Z,75.77
2023-02-09T06:52:22.013Z,76.42
2023-02-09T06:54:51.106Z,76.53
2023-02-09T06:57:20.114Z,77.13
2023-02-09T06:59:49.484Z,78.09
2023-02-09T07:02:22.262Z,77.77
2023-02-09T07:04:51.288Z,77.84
2023-02-09T07:07:21.510Z,77.75
2023-02-09T07:09:50.279Z,77.81
2023-02-09T07:12:22.262Z,78.24
2023-02-09T07:14:51.245Z,79.34
2023-02-09T07:17:20.142Z,78.86
2023-02-09T07:19:49.752Z,78.39
2023-02-09T07:22:18.847Z,78.73
2023-02-09T07:24:49.254Z,79.60
2023-02-09T07:27:18.265Z,79.64
2023-02-09T07:29:47.770Z,78.90
2023-02-09T07:32:19.493Z,79.03
2023-02-09T07:34:50.631Z,79.08
2023-02-09T07:37:20.181Z,78.86
2023-02-09T07:39:50.592Z,78.65
2023-02-09T07:42:20.346Z,78.47
2023-02-09T07:45:07.516Z,78.05
2023-02-09T07:47:43.426Z,78.46
2023-02-09T07:50:12.384Z,78.05
2023-02-09T07:52:41.304Z,77.66
2023-02-09T07:55:11.681Z,77.68
2023-02-09T07:57:40.905Z,77.08
2023-02-09T08:00:14.508Z,76.87
2023-02-09T08:02:47.469Z,76.23
2023-02-09T08:05:19.874Z,75.79
2023-02-09T08:07:48.861Z,75.67
2023-02-09T08:10:20.691Z,75.62
2023-02-09T08:13:02.932Z,75.67
2023-02-09T08:15:39.397Z,75.76
2023-02-09T08:18:12.942Z,75.70
2023-02-09T08:20:42.388Z,75.43
2023-02-09T08:23:39.496Z,74.43
2023-02-09T08:26:13.269Z,74.81
2023-02-09T08:28:45.009Z,75.23
2023-02-09T08:31:17.136Z,75.14
2023-02-09T08:33:52.685Z,75.01
2023-02-09T08:36:22.212Z,75.05
2023-02-09T08:38:50.903Z,74.67
2023-02-09T08:41:21.979Z,74.40
2023-02-09T08:43:51.810Z,73.64
2023-02-09T08:46:21.066Z,73.51
2023-02-09T08:48:59.297Z,74.02
2023-02-09T08:51:27.992Z,74.89
2023-02-09T08:53:56.772Z,74.19
2023-02-09T08:56:27.043Z,74.26
2023-02-09T08:58:56.298Z,73.48
2023-02-09T09:01:25.124Z,73.50
2023-02-09T09:03:54.224Z,73.60
2023-02-09T09:06:23.264Z,74.53
2023-02-09T09:08:52.579Z,73.74
2023-02-09T09:11:21.430Z,73.14
2023-02-09T09:13:53.039Z,74.07
2023-02-09T09:16:23.472Z,73.74
2023-02-09T09:18:52.371Z,73.62
2023-02-09T09:21:21.505Z,73.27
2023-02-09T09:23:50.435Z,73.65
2023-02-09T09:26:19.352Z,73.11
2023-02-09T09:28:52.358Z,73.04
2023-02-09T09:31:21.625Z,73.53
2023-02-09T09:33:50.958Z,73.17
2023-02-09T09:36:20.794Z,73.56
2023-02-09T09:38:49.830Z,74.25
2023-02-09T09:41:22.324Z,73.82
2023-02-09T09:43:52.938Z,73.41
2023-02-09T09:46:24.039Z,73.15
2023-02-09T09:48:54.303Z,73.29
2023-02-09T09:51:27.593Z,73.34
2023-02-09T09:53:57.917Z,72.75
2023-02-09T09:56:27.352Z,73.08
2023-02-09T09:58:58.561Z,72.54
2023-02-09T10:01:28.760Z,72.26
2023-02-09T10:03:58.697Z,72.36
2023-02-09T10:06:33.862Z,72.31
2023-02-09T10:09:05.650Z,72.79
2023-02-09T10:11:39.907Z,72.45
2023-02-09T10:14:11.837Z,72.57
2023-02-09T10:16:40.810Z,72.85
2023-02-09T10:19:19.386Z,71.39
2023-02-09T10:21:49.071Z,71.13
2023-02-09T10:24:23.634Z,71.23
2023-02-09T10:27:09.042Z,71.21
2023-02-09T10:29:39.239Z,71.18
2023-02-09T10:32:16.394Z,71.11
2023-02-09T10:34:48.373Z,70.55
2023-02-09T10:37:26.815Z,69.12
2023-02-09T10:40:00.608Z,68.93
2023-02-09T10:42:31.298Z,69.51
2023-02-09T10:45:08.600Z,70.28
2023-02-09T10:47:37.186Z,70.15
2023-02-09T10:50:17.265Z,68.73
2023-02-09T10:52:56.471Z,68.81
2023-02-09T10:55:29.805Z,68.67
2023-02-09T10:58:19.471Z,69.42
2023-02-09T11:00:54.181Z,69.18
2023-02-09T11:03:25.497Z,68.72
2023-02-09T11:06:02.455Z,67.44
2023-02-09T11:08:40.948Z,67.81
2023-02-09T11:11:24.760Z,67.46
2023-02-09T11:13:53.772Z,66.54
2023-02-09T11:16:39.480Z,66.22
2023-02-09T11:19:14.594Z,66.19
2023-02-09T11:21:55.717Z,65.57
2023-02-09T11:24:31.948Z,66.35
2023-02-09T11:27:04.568Z,65.29
2023-02-09T11:29:38.023Z,65.00
2023-02-09T11:32:13.785Z,65.30
2023-02-09T11:35:09.201Z,65.25
2023-02-09T11:37:41.823Z,63.86
2023-02-09T11:40:23.464Z,63.88
2023-02-09T11:43:02.993Z,63.17
2023-02-09T11:45:35.244Z,63.97
2023-02-09T11:48:10.743Z,62.02
2023-02-09T11:50:44.857Z,65.59
2023-02-09T11:53:21.665Z,64.43
2023-02-09T11:55:53.789Z,64.65
2023-02-09T11:58:34.562Z,65.61
2023-02-09T12:01:15.593Z,65.14
2023-02-09T12:03:58.262Z,65.27
2023-02-09T12:06:26.968Z,65.67
2023-02-09T12:09:02.480Z,65.17
2023-02-09T12:11:43.629Z,64.90
2023-02-09T12:14:37.110Z,65.53
2023-02-09T12:17:09.696Z,65.91
2023-02-09T12:19:41.494Z,65.49
2023-02-09T12:22:49.882Z,64.33
2023-02-09T12:25:34.170Z,64.18
2023-02-09T12:28:13.030Z,64.20
2023-02-09T12:31:04.879Z,63.82
2023-02-09T12:33:34.846Z,62.02
2023-02-09T12:36:07.195Z,62.55
2023-02-09T12:38:51.619Z,61.67
2023-02-09T12:41:23.711Z,61.60
2023-02-09T12:43:55.300Z,62.67
2023-02-09T12:46:26.744Z,62.66
2023-02-09T12:49:07.320Z,62.50
2023-02-09T12:51:54.409Z,62.47
2023-02-09T12:54:47.515Z,61.70
2023-02-09T12:57:52.146Z,62.09
2023-02-09T13:00:33.953Z,60.55
2023-02-09T13:03:12.177Z,59.83
2023-02-09T13:05:44.743Z,59.69
2023-02-09T13:08:35.072Z,58.92
2023-02-09T13:11:07.905Z,58.11
2023-02-09T13:13:45.112Z,58.54
2023-02-09T13:16:52.229Z,58.35
2023-02-09T13:19:42.544Z,57.32
2023-02-09T13:22:26.713Z,56.92
2023-02-09T13:25:00.476Z,56.93
2023-02-09T13:27:30.076Z,56.55
2023-02-09T13:30:00.110Z,55.88
2023-02-09T13:32:37.949Z,56.76
2023-02-09T13:35:13.533Z,56.51
2023-02-09T13:37:47.806Z,57.11
2023-02-09T13:40:20.366Z,55.85
2023-02-09T13:42:54.731Z,55.63
2023-02-09T13:45:24.979Z,56.84
2023-02-09T13:47:53.963Z,55.59
2023-02-09T13:50:24.460Z,55.96
2023-02-09T13:52:53.212Z,55.76
2023-02-09T13:55:24.954Z,55.70
2023-02-09T13:57:58.777Z,56.76
2023-02-09T14:00:29.335Z,56.89
2023-02-09T14:03:03.124Z,56.70
2023-02-09T14:05:36.837Z,56.08
2023-02-09T14:08:05.764Z,55.18
2023-02-09T14:10:35.979Z,56.21
2023-02-09T14:13:05.947Z,55.33
2023-02-09T14:15:56.042Z,55.19
2023-02-09T14:18:33.313Z,54.98
2023-02-09T14:21:04.587Z,54.85
2023-02-09T14:23:35.875Z,55.34
2023-02-09T14:26:07.137Z,55.39
2023-02-09T14:28:36.437Z,54.85
2023-02-09T14:31:07.393Z,54.50
2023-02-09T14:33:38.426Z,55.26
2023-02-09T14:36:07.720Z,54.77
2023-02-09T14:38:38.704Z,54.54
2023-02-09T14:41:36.519Z,55.15
2023-02-09T14:44:18.816Z,55.24
2023-02-09T14:46:49.476Z,55.34
2023-02-09T14:49:18.538Z,54.78
2023-02-09T14:51:47.850Z,55.18
2023-02-09T14:54:27.576Z,55.87
2023-02-09T14:56:58.717Z,54.77
2023-02-09T14:59:27.110Z,53.43
2023-02-09T15:01:57.691Z,50.74
2023-02-09T15:04:25.907Z,48.61
2023-02-09T15:07:01.998Z,45.16
2023-02-09T15:09:37.754Z,43.15
2023-02-09T15:12:08.300Z,43.12
2023-02-09T15:14:41.474Z,41.93
2023-02-09T15:17:17.886Z,41.83
2023-02-09T15:19:47.108Z,43.06
2023-02-09T15:22:16.680Z,44.61
2023-02-09T15:24:45.931Z,44.76
2023-02-09T15:27:25.766Z,45.03
2023-02-09T15:29:54.718Z,45.89
2023-02-09T15:32:24.217Z,45.53
2023-02-09T15:34:53.302Z,45.83
2023-02-09T15:37:23.851Z,45.59
2023-02-09T15:39:56.850Z,45.34
2023-02-09T15:42:44.196Z,45.70
2023-02-09T15:45:34.901Z,46.29
2023-02-09T15:48:03.381Z,46.60
2023-02-09T15:50:32.960Z,47.48
2023-02-09T15:53:02.250Z,47.59
2023-02-09T15:55:31.193Z,48.37
2023-02-09T15:58:00.843Z,49.51
2023-02-09T16:00:30.637Z,49.42
2023-02-09T16:03:01.290Z,50.40
2023-02-09T16:05:30.970Z,50.23
2023-02-09T16:08:00.081Z,50.57
2023-02-09T16:10:30.018Z,51.76
2023-02-09T16:12:58.602Z,52.81
2023-02-09T16:15:28.582Z,52.75
2023-02-09T16:17:56.771Z,53.58
2023-02-09T16:20:26.371Z,53.66
2023-02-09T16:22:56.078Z,54.73
2023-02-09T16:25:26.253Z,54.66
2023-02-09T16:27:57.689Z,55.18
2023-02-09T16:30:29.119Z,54.12
2023-02-09T16:32:57.823Z,54.45
2023-02-09T16:35:26.711Z,55.31
2023-02-09T16:37:56.271Z,55.12
2023-02-09T16:40:27.473Z,54.92
2023-02-09T16:42:57.120Z,55.38
2023-02-09T16:45:26.572Z,55.74
2023-02-09T16:47:59.377Z,55.99
2023-02-09T16:50:33.008Z,56.34
2023-02-09T16:53:03.113Z,57.39
2023-02-09T16:55:32.700Z,57.29
2023-02-09T16:58:02.467Z,57.55
2023-02-09T17:00:33.787Z,58.05
2023-02-09T17:03:07.610Z,58.75
2023-02-09T17:05:37.226Z,58.55
2023-02-09T17:08:07.980Z,58.30
2023-02-09T17:10:37.050Z,59.02
2023-02-09T17:13:05.765Z,59.73
2023-02-09T17:15:39.489Z,60.28
2023-02-09T17:18:10.554Z,60.27
2023-02-09T17:20:41.565Z,63.55
2023-02-09T17:23:12.215Z,63.71
2023-02-09T17:25:40.563Z,65.20
2023-02-09T17:28:08.994Z,65.16
2023-02-09T17:30:37.696Z,65.19
2023-02-09T17:33:08.102Z,64.62
2023-02-09T17:38:32.772Z,67.74
2023-02-09T17:41:02.689Z,67.55
2023-02-09T17:43:31.339Z,68.02
2023-02-09T17:45:59.939Z,68.33
2023-02-09T17:48:29.963Z,68.69
2023-02-09T17:51:02.493Z,68.76
2023-02-09T17:53:34.711Z,68.53
2023-02-09T17:56:03.501Z,68.28
2023-02-09T17:58:32.218Z,68.68
2023-02-09T18:01:01.301Z,69.08
2023-02-09T18:03:30.067Z,68.60
2023-02-09T18:06:01.818Z,68.48
2023-02-09T18:08:55.580Z,68.56
2023-02-09T18:11:41.504Z,68.63
2023-02-09T18:14:11.906Z,68.62
2023-02-09T18:16:41.419Z,68.84
2023-02-09T18:19:10.558Z,68.68
2023-02-09T18:21:43.483Z,68.75
2023-02-09T18:24:12.586Z,68.69
2023-02-09T18:26:41.386Z,69.09
2023-02-09T18:29:10.251Z,69.78
2023-02-09T18:31:39.222Z,69.90
2023-02-09T18:34:08.852Z,69.53
2023-02-09T18:36:37.856Z,69.40
2023-02-09T18:39:08.362Z,69.33
2023-02-09T18:41:37.692Z,69.81
2023-02-09T18:44:06.785Z,69.68
2023-02-09T18:46:35.506Z,70.05
2023-02-09T18:49:04.767Z,70.43
2023-02-09T18:51:34.158Z,70.86
2023-02-09T18:54:04.547Z,71.80
2023-02-09T18:56:34.912Z,71.77
2023-02-09T18:59:03.689Z,72.05
2023-02-09T19:01:32.460Z,71.78
2023-02-09T19:04:01.477Z,71.68
2023-02-09T19:06:30.167Z,71.49
2023-02-09T19:08:59.054Z,72.25
2023-02-09T19:11:27.782Z,71.30
2023-02-09T19:14:15.212Z,71.76
2023-02-09T19:16:44.670Z,72.12
2023-02-09T19:19:13.557Z,72.94
2023-02-09T19:21:42.177Z,72.78
2023-02-09T19:24:10.798Z,72.70
2023-02-09T19:26:39.298Z,71.94
2023-02-09T19:29:09.222Z,72.11
2023-02-09T19:31:38.623Z,71.84
2023-02-09T19:34:07.298Z,73.28
2023-02-09T19:36:36.402Z,73.11
2023-02-09T19:39:05.121Z,72.96
2023-02-09T19:41:33.804Z,72.91
2023-02-09T19:44:02.450Z,73.21
2023-02-09T19:46:32.923Z,72.59
2023-02-09T19:49:02.320Z,73.40
2023-02-09T19:51:31.032Z,73.08
2023-02-09T19:53:59.715Z,72.36
2023-02-09T19:56:28.611Z,73.70
2023-02-09T19:58:57.431Z,73.18
2023-02-09T20:01:27.091Z,73.53
2023-02-09T20:03:57.843Z,74.10
2023-02-09T20:06:30.642Z,73.89
2023-02-09T20:09:00.541Z,74.74
2023-02-09T20:11:30.992Z,75.74
2023-02-09T20:16:54.933Z,75.54
2023-02-09T20:19:27.958Z,75.49
2023-02-09T20:21:56.774Z,75.12
2023-02-09T20:24:25.550Z,75.05
2023-02-09T20:26:54.221Z,75.70
2023-02-09T20:29:23.318Z,75.18
2023-02-09T20:31:51.955Z,75.70
2023-02-09T20:34:47.248Z,75.42
2023-02-09T20:37:16.217Z,76.09
2023-02-09T20:39:45.293Z,76.23
2023-02-09T20:42:32.625Z,77.22
2023-02-09T20:45:19.214Z,77.54
2023-02-09T20:47:48.018Z,76.29
2023-02-09T20:50:20.156Z,76.46
2023-02-09T20:52:48.982Z,76.98
2023-02-09T20:55:22.902Z,76.12
2023-02-09T20:58:16.972Z,76.01
2023-02-09T21:00:46.422Z,76.11
2023-02-09T21:03:15.472Z,76.43
2023-02-09T21:05:52.350Z,76.40
2023-02-09T21:08:23.925Z,77.06
2023-02-09T21:10:57.090Z,76.95
2023-02-09T21:13:27.164Z,76.47
2023-02-09T21:15:57.132Z,76.64
2023-02-09T21:18:27.664Z,77.19
2023-02-09T21:21:09.268Z,77.48
2023-02-09T21:26:22.949Z,77.31
2023-02-09T21:28:56.412Z,77.02
2023-02-09T21:31:27.423Z,77.20
2023-02-09T21:33:56.962Z,77.65
2023-02-09T21:36:27.883Z,76.63
2023-02-09T21:38:57.074Z,76.99
2023-02-09T21:41:52.921Z,76.70
2023-02-09T21:44:21.909Z,76.58
2023-02-09T21:46:53.989Z,76.85
2023-02-09T21:49:23.691Z,77.79
2023-02-09T21:51:54.297Z,77.63
2023-02-09T21:54:26.544Z,77.19
2023-02-09T21:56:57.305Z,79.12
2023-02-09T21:59:26.417Z,79.87
2023-02-09T22:01:55.681Z,78.98
2023-02-09T22:04:25.992Z,78.71
2023-02-09T22:07:04.191Z,78.55
2023-02-09T22:09:33.348Z,79.58
2023-02-09T22:12:03.042Z,79.54
2023-02-09T22:14:32.224Z,79.34
2023-02-09T22:17:01.667Z,79.47
2023-02-09T22:19:30.864Z,80.32
2023-02-09T22:22:04.348Z,80.91
2023-02-09T22:24:35.137Z,81.18
2023-02-09T22:27:29.494Z,81.75
2023-02-09T22:29:58.892Z,81.37
2023-02-09T22:32:27.892Z,82.04
2023-02-09T22:34:56.977Z,82.30
2023-02-09T22:37:36.007Z,81.95
2023-02-09T22:40:05.510Z,81.05
2023-02-09T22:42:34.590Z,81.48
2023-02-09T22:45:04.524Z,81.38
2023-02-09T22:47:34.854Z,81.50
2023-02-09T22:50:04.057Z,81.83
2023-02-09T22:52:34.655Z,82.12
2023-02-09T22:55:03.687Z,82.03
2023-02-09T22:57:32.874Z,81.52
2023-02-09T23:00:01.992Z,82.38
2023-02-09T23:02:33.538Z,82.68
2023-02-09T23:05:02.943Z,82.97
2023-02-09T23:07:33.693Z,83.32
2023-02-09T23:10:03.183Z,83.18
2023-02-09T23:12:32.368Z,83.20
2023-02-09T23:15:01.250Z,82.74
2023-02-09T23:17:30.681Z,82.04
2023-02-09T23:20:10.059Z,81.88
2023-02-09T23:22:40.580Z,82.48
2023-02-09T23:25:09.825Z,82.94
2023-02-09T23:27:39.206Z,82.45
2023-02-09T23:30:09.572Z,82.19
2023-02-09T23:32:38.462Z,81.44
2023-02-09T23:35:08.689Z,81.29
2023-02-09T23:37:41.841Z,80.93
2023-02-09T23:40:12.565Z,80.62
2023-02-09T23:42:41.586Z,80.34
2023-02-09T23:45:11.324Z,80.36
2023-02-09T23:47:42.058Z,80.41
2023-02-09T23:50:11.255Z,80.05
2023-02-09T23:52:47.310Z,81.03
2023-02-09T23:55:16.592Z,80.83
2023-02-09T23:57:46.021Z,80.73
